createdAt,value
2023-04-30T05:02:48.538Z,100841.69
2023-04-30T05:05:15.692Z,100845.19
2023-04-30T05:07:43.114Z,100846.06
2023-04-30T05:10:09.868Z,100841.72
2023-04-30T05:12:37.015Z,100846.97
2023-04-30T05:15:04.575Z,100846.09
2023-04-30T05:17:31.597Z,100846.97
2023-04-30T05:19:58.406Z,100845.19
2023-04-30T05:22:25.650Z,100842.53
2023-04-30T05:24:53.006Z,100845.16
2023-04-30T05:27:19.932Z,100845.13
2023-04-30T05:29:46.496Z,100838.94
2023-04-30T05:32:13.730Z,100846.84
2023-04-30T05:34:40.340Z,100841.56
2023-04-30T05:37:07.531Z,100850.31
2023-04-30T05:39:34.112Z,100857.31
2023-04-30T05:42:02.760Z,100859.88
2023-04-30T05:44:30.397Z,100858.09
2023-04-30T05:46:57.658Z,100854.53
2023-04-30T05:49:24.286Z,100857.97
2023-04-30T05:51:51.532Z,100863.13
2023-04-30T05:54:18.151Z,100855.09
2023-04-30T05:56:45.400Z,100853.16
2023-04-30T05:59:11.988Z,100849.50
2023-04-30T06:01:39.234Z,100857.25
2023-04-30T06:04:05.869Z,100863.22
2023-04-30T06:06:33.265Z,100862.13
2023-04-30T06:08:59.871Z,100864.56
2023-04-30T06:11:27.528Z,100868.75
2023-04-30T06:13:54.275Z,100861.38
2023-04-30T06:16:21.451Z,100869.03
2023-04-30T06:18:48.492Z,100867.78
2023-04-30T06:21:15.223Z,100869.19
2023-04-30T06:23:42.150Z,100870.53
2023-04-30T06:26:08.740Z,100872.78
2023-04-30T06:28:35.626Z,100874.19
2023-04-30T06:31:02.283Z,100868.44
2023-04-30T06:33:29.486Z,100867.91
2023-04-30T06:35:56.043Z,100875.25
2023-04-30T06:38:23.251Z,100876.53
2023-04-30T06:40:50.341Z,100872.34
2023-04-30T06:43:17.640Z,100868.94
2023-04-30T06:45:44.371Z,100868.47
2023-04-30T06:48:11.649Z,100864.63
2023-04-30T06:50:44.650Z,100872.13
2023-04-30T06:53:13.005Z,100870.94
2023-04-30T06:55:40.954Z,100870.47
2023-04-30T06:58:08.397Z,100863.50
2023-04-30T07:00:35.285Z,100869.69
2023-04-30T07:03:04.044Z,100869.16
2023-04-30T07:05:31.399Z,100862.25
2023-04-30T07:07:59.033Z,100865.91
2023-04-30T07:10:26.237Z,100865.56
2023-04-30T07:12:53.103Z,100868.75
2023-04-30T07:15:19.974Z,100871.81
2023-04-30T07:17:47.294Z,100868.44
2023-04-30T07:20:17.281Z,100866.47
2023-04-30T07:22:46.307Z,100866.69
2023-04-30T07:25:13.946Z,100872.59
2023-04-30T07:27:41.200Z,100881.31
2023-04-30T07:30:10.592Z,100875.44
2023-04-30T07:32:38.475Z,100875.00
2023-04-30T07:35:06.161Z,100881.53
2023-04-30T07:37:35.478Z,100870.34
2023-04-30T07:40:03.504Z,100876.16
2023-04-30T07:42:30.784Z,100871.41
2023-04-30T07:44:57.456Z,100872.16
2023-04-30T07:47:25.698Z,100868.22
2023-04-30T07:49:52.759Z,100867.75
2023-04-30T07:52:19.827Z,100867.59
2023-04-30T07:54:46.402Z,100863.75
2023-04-30T07:57:13.414Z,100863.03
2023-04-30T07:59:40.151Z,100859.34
2023-04-30T08:02:08.811Z,100860.84
2023-04-30T08:04:35.761Z,100862.56
2023-04-30T08:07:02.972Z,100866.22
2023-04-30T08:09:29.506Z,100876.66
2023-04-30T08:11:56.722Z,100874.78
2023-04-30T08:14:23.284Z,100879.69
2023-04-30T08:16:50.601Z,100872.44
2023-04-30T08:19:17.196Z,100879.03
2023-04-30T08:21:44.473Z,100881.59
2023-04-30T08:24:11.045Z,100884.78
2023-04-30T08:26:37.999Z,100873.16
2023-04-30T08:29:05.269Z,100871.28
2023-04-30T08:31:32.065Z,100874.25
2023-04-30T08:33:59.326Z,100869.91
2023-04-30T08:36:27.006Z,100866.19
2023-04-30T08:38:53.744Z,100869.69
2023-04-30T08:41:25.532Z,100861.13
2023-04-30T08:44:00.168Z,100865.06
2023-04-30T08:46:29.084Z,100864.00
2023-04-30T08:48:56.144Z,100865.78
2023-04-30T08:51:24.097Z,100865.78
2023-04-30T08:53:51.712Z,100861.41
2023-04-30T08:56:18.271Z,100857.22
2023-04-30T08:58:45.506Z,100853.38
2023-04-30T09:01:12.483Z,100858.28
2023-04-30T09:03:39.327Z,100852.22
2023-04-30T09:06:06.621Z,100853.19
2023-04-30T09:09:09.080Z,100855.56
2023-04-30T09:11:36.033Z,100856.59
2023-04-30T09:14:03.335Z,100857.94
2023-04-30T09:16:45.322Z,100855.38
2023-04-30T09:19:25.714Z,100858.63
2023-04-30T09:21:53.466Z,100858.69
2023-04-30T09:24:20.429Z,100854.66
2023-04-30T09:26:47.429Z,100853.03
2023-04-30T09:29:14.354Z,100848.59
2023-04-30T09:31:47.375Z,100858.22
2023-04-30T09:34:15.085Z,100858.16
2023-04-30T09:36:55.436Z,100859.00
2023-04-30T09:39:22.427Z,100864.81
2023-04-30T09:41:51.663Z,100857.13
2023-04-30T09:44:32.054Z,100855.75
2023-04-30T09:46:59.662Z,100858.38
2023-04-30T09:49:27.228Z,100854.91
2023-04-30T09:51:59.938Z,100854.47
2023-04-30T09:54:30.799Z,100845.28
2023-04-30T09:57:00.208Z,100846.13
2023-04-30T09:59:39.429Z,100849.84
2023-04-30T10:02:07.351Z,100834.34
2023-04-30T10:04:39.150Z,100837.44
2023-04-30T10:07:15.406Z,100840.34
2023-04-30T10:09:57.770Z,100837.44
2023-04-30T10:12:34.760Z,100826.03
2023-04-30T10:15:11.275Z,100821.31
2023-04-30T10:17:42.818Z,100815.78
2023-04-30T10:20:11.180Z,100818.19
2023-04-30T10:22:38.563Z,100810.53
2023-04-30T10:25:06.041Z,100809.88
2023-04-30T10:27:34.818Z,100813.53
2023-04-30T10:30:02.463Z,100815.97
2023-04-30T10:32:42.658Z,100819.97
2023-04-30T10:35:24.317Z,100824.22
2023-04-30T10:37:57.739Z,100809.16
2023-04-30T10:40:27.033Z,100816.50
2023-04-30T10:42:55.156Z,100812.09
2023-04-30T10:45:48.717Z,100802.88
2023-04-30T10:48:24.284Z,100797.25
2023-04-30T10:50:59.328Z,100805.53
2023-04-30T10:53:30.533Z,100794.56
2023-04-30T10:56:06.661Z,100791.72
2023-04-30T10:58:36.214Z,100787.63
2023-04-30T11:01:10.659Z,100781.06
2023-04-30T11:03:40.557Z,100782.59
2023-04-30T11:06:14.620Z,100780.63
2023-04-30T11:08:46.182Z,100776.44
2023-04-30T11:11:18.252Z,100772.41
2023-04-30T11:13:46.832Z,100775.59
2023-04-30T11:16:45.481Z,100778.03
2023-04-30T11:19:14.519Z,100784.19
2023-04-30T11:21:42.561Z,100775.50
2023-04-30T11:24:09.828Z,100766.63
2023-04-30T11:27:08.856Z,100775.50
2023-04-30T11:29:36.464Z,100766.25
2023-04-30T11:32:05.300Z,100763.16
2023-04-30T11:34:34.673Z,100771.81
2023-04-30T11:37:03.327Z,100762.19
2023-04-30T11:39:35.631Z,100754.50
2023-04-30T11:42:03.326Z,100750.00
2023-04-30T11:44:30.812Z,100740.09
2023-04-30T11:46:57.959Z,100746.28
2023-04-30T11:49:25.503Z,100737.00
2023-04-30T11:51:53.160Z,100742.03
2023-04-30T11:54:20.668Z,100740.66
2023-04-30T11:56:51.116Z,100735.00
2023-04-30T11:59:20.195Z,100745.59
2023-04-30T12:01:46.847Z,100733.19
2023-04-30T12:04:14.237Z,100736.13
2023-04-30T12:06:41.448Z,100726.25
2023-04-30T12:09:13.602Z,100729.72
2023-04-30T12:11:40.781Z,100721.16
2023-04-30T12:14:11.284Z,100728.13
2023-04-30T12:16:51.331Z,100726.00
2023-04-30T12:19:20.096Z,100720.81
2023-04-30T12:21:48.593Z,100727.91
2023-04-30T12:24:17.899Z,100721.47
2023-04-30T12:26:45.578Z,100720.59
2023-04-30T12:29:17.837Z,100721.06
2023-04-30T12:31:46.015Z,100707.09
2023-04-30T12:34:14.763Z,100710.19
2023-04-30T12:36:43.436Z,100712.50
2023-04-30T12:39:16.317Z,100710.78
2023-04-30T12:41:45.935Z,100717.44
2023-04-30T12:44:27.985Z,100714.91
2023-04-30T12:47:00.903Z,100698.06
2023-04-30T12:49:34.674Z,100704.53
2023-04-30T12:52:12.635Z,100702.09
2023-04-30T12:54:40.447Z,100699.13
2023-04-30T12:57:09.158Z,100692.19
2023-04-30T12:59:56.636Z,100698.47
2023-04-30T13:02:25.757Z,100677.47
2023-04-30T13:04:53.308Z,100684.88
2023-04-30T13:07:21.120Z,100678.06
2023-04-30T13:09:48.403Z,100669.56
2023-04-30T13:12:15.067Z,100677.28
2023-04-30T13:14:42.623Z,100668.31
2023-04-30T13:17:11.057Z,100657.72
2023-04-30T13:19:38.311Z,100653.59
2023-04-30T13:22:05.010Z,100659.75
2023-04-30T13:24:34.425Z,100651.97
2023-04-30T13:27:02.666Z,100654.75
2023-04-30T13:29:30.008Z,100652.84
2023-04-30T13:31:57.315Z,100653.41
2023-04-30T13:34:25.307Z,100656.19
2023-04-30T13:36:53.411Z,100643.97
2023-04-30T13:39:22.322Z,100641.34
2023-04-30T13:41:49.308Z,100629.03
2023-04-30T13:44:17.470Z,100645.41
2023-04-30T13:46:44.233Z,100644.06
2023-04-30T13:49:11.854Z,100638.78
2023-04-30T13:51:39.363Z,100639.28
2023-04-30T13:54:06.883Z,100630.78
2023-04-30T13:56:34.081Z,100631.00
2023-04-30T13:59:01.597Z,100636.94
2023-04-30T14:01:28.888Z,100628.88
2023-04-30T14:03:56.442Z,100636.16
2023-04-30T14:06:23.707Z,100631.13
2023-04-30T14:08:51.185Z,100635.97
2023-04-30T14:11:17.834Z,100638.53
2023-04-30T14:13:45.167Z,100631.50
2023-04-30T14:16:12.142Z,100635.13
2023-04-30T14:18:42.354Z,100625.97
2023-04-30T14:21:09.184Z,100638.19
2023-04-30T14:23:38.960Z,100630.31
2023-04-30T14:26:06.108Z,100627.94
2023-04-30T14:28:33.790Z,100629.06
2023-04-30T14:31:00.814Z,100628.25
2023-04-30T14:33:28.367Z,100626.94
2023-04-30T14:35:55.204Z,100626.63
2023-04-30T14:38:22.575Z,100615.94
2023-04-30T14:40:49.226Z,100618.25
2023-04-30T14:43:16.694Z,100616.06
2023-04-30T14:45:45.337Z,100620.47
2023-04-30T14:48:13.219Z,100607.22
2023-04-30T14:50:41.084Z,100608.38
2023-04-30T14:53:09.754Z,100606.94
2023-04-30T14:55:36.839Z,100606.16
2023-04-30T14:58:04.721Z,100604.50
2023-04-30T15:00:33.330Z,100599.81
2023-04-30T15:03:01.786Z,100592.06
2023-04-30T15:05:29.554Z,100597.69
2023-04-30T15:07:56.736Z,100595.41
2023-04-30T15:10:23.492Z,100587.69
2023-04-30T15:12:50.879Z,100594.66
2023-04-30T15:15:18.893Z,100585.16
2023-04-30T15:17:46.645Z,100588.81
2023-04-30T15:20:13.601Z,100586.91
2023-04-30T15:22:40.981Z,100585.34
2023-04-30T15:25:08.019Z,100581.16
2023-04-30T15:27:37.101Z,100574.38
2023-04-30T15:30:12.398Z,100573.34
2023-04-30T15:32:42.178Z,100573.25
2023-04-30T15:35:09.634Z,100560.09
2023-04-30T15:37:39.071Z,100564.66
2023-04-30T15:40:18.322Z,100573.69
2023-04-30T15:43:10.649Z,100568.31
2023-04-30T15:45:37.620Z,100559.75
2023-04-30T15:48:17.327Z,100555.53
2023-04-30T15:50:44.253Z,100564.50
2023-04-30T15:53:11.395Z,100564.59
2023-04-30T15:55:40.617Z,100558.38
2023-04-30T15:58:08.295Z,100564.59
2023-04-30T16:00:35.163Z,100558.50
2023-04-30T16:03:06.526Z,100561.34
2023-04-30T16:11:03.798Z,100544.25
2023-04-30T16:13:31.227Z,100550.63
2023-04-30T16:16:00.018Z,100544.38
2023-04-30T16:18:34.270Z,100538.31
2023-04-30T16:21:01.703Z,100536.44
2023-04-30T16:23:29.742Z,100543.47
2023-04-30T16:25:56.588Z,100538.25
2023-04-30T16:28:24.547Z,100540.94
2023-04-30T16:33:39.076Z,100531.25
2023-04-30T16:36:06.578Z,100532.31
2023-04-30T16:38:33.299Z,100530.44
2023-04-30T16:41:01.328Z,100528.09
2023-04-30T16:43:28.955Z,100520.97
2023-04-30T16:45:56.796Z,100524.59
2023-04-30T16:48:24.736Z,100518.50
2023-04-30T16:50:51.679Z,100523.09
2023-04-30T16:56:08.858Z,100510.88
2023-04-30T17:01:17.948Z,100514.66
2023-04-30T17:03:48.020Z,100512.94
2023-04-30T17:06:15.429Z,100504.09
2023-04-30T17:11:31.952Z,100500.75
2023-04-30T17:13:58.499Z,100495.38
2023-04-30T17:16:25.789Z,100500.75
2023-04-30T17:18:52.416Z,100493.94
2023-04-30T17:21:19.621Z,100500.41
2023-04-30T17:23:46.135Z,100490.72
2023-04-30T17:26:12.998Z,100489.13
2023-04-30T17:28:39.719Z,100494.69
2023-04-30T17:31:07.842Z,100491.22
2023-04-30T17:33:34.423Z,100487.78
2023-04-30T17:36:01.663Z,100488.00
2023-04-30T17:38:28.230Z,100489.00
2023-04-30T17:40:56.941Z,100484.81
2023-04-30T17:43:24.163Z,100484.09
2023-04-30T17:45:53.944Z,100477.97
2023-04-30T17:48:20.596Z,100488.78
2023-04-30T17:50:48.046Z,100486.50
2023-04-30T17:53:14.684Z,100480.25
2023-04-30T17:55:41.982Z,100484.84
2023-04-30T17:58:11.612Z,100480.63
2023-04-30T18:00:39.673Z,100478.97
2023-04-30T18:03:06.628Z,100489.03
2023-04-30T18:05:35.587Z,100483.97
2023-04-30T18:08:02.778Z,100485.78
2023-04-30T18:10:29.681Z,100478.81
2023-04-30T18:12:58.588Z,100479.97
2023-04-30T18:15:26.087Z,100473.16
2023-04-30T18:17:53.104Z,100467.97
2023-04-30T18:20:21.730Z,100473.56
2023-04-30T18:22:48.905Z,100467.56
2023-04-30T18:25:17.086Z,100470.50
2023-04-30T18:27:44.870Z,100470.72
2023-04-30T18:30:12.958Z,100472.69
2023-04-30T18:32:41.550Z,100476.59
2023-04-30T18:35:09.289Z,100480.31
2023-04-30T18:37:35.906Z,100480.59
2023-04-30T18:40:03.928Z,100471.91
2023-04-30T18:42:31.227Z,100471.44
2023-04-30T18:44:57.814Z,100466.44
2023-04-30T18:47:25.023Z,100466.66
2023-04-30T18:49:51.722Z,100468.72
2023-04-30T18:52:19.050Z,100462.84
2023-04-30T18:54:46.471Z,100466.66
2023-04-30T18:57:18.652Z,100468.69
2023-04-30T18:59:45.427Z,100463.75
2023-04-30T19:02:13.003Z,100470.16
2023-04-30T19:04:39.615Z,100469.47
2023-04-30T19:07:06.862Z,100465.25
2023-04-30T19:09:36.865Z,100468.97
2023-04-30T19:12:04.290Z,100463.03
2023-04-30T19:14:30.969Z,100467.75
2023-04-30T19:16:58.321Z,100475.16
2023-04-30T19:19:25.109Z,100476.19
2023-04-30T19:21:53.768Z,100477.47
2023-04-30T19:24:21.187Z,100481.13
2023-04-30T19:26:49.806Z,100475.97
2023-04-30T19:29:16.534Z,100485.97
2023-04-30T19:31:43.818Z,100481.59
2023-04-30T19:34:10.966Z,100475.63
2023-04-30T19:36:38.168Z,100487.38
2023-04-30T19:39:07.229Z,100479.69
2023-04-30T19:41:34.363Z,100486.09
2023-04-30T19:44:01.015Z,100485.47
2023-04-30T19:46:27.999Z,100482.03
2023-04-30T19:48:54.815Z,100491.09
2023-04-30T19:52:01.834Z,100492.31
2023-04-30T19:54:53.246Z,100483.63
2023-04-30T19:57:20.029Z,100483.03
2023-04-30T19:59:47.671Z,100486.63
2023-04-30T20:02:14.884Z,100478.84
2023-04-30T20:04:42.267Z,100477.97
2023-04-30T20:07:09.051Z,100472.81
2023-04-30T20:09:37.621Z,100476.53
2023-04-30T20:12:04.683Z,100475.81
2023-04-30T20:14:32.182Z,100474.19
2023-04-30T20:16:59.234Z,100470.72
2023-04-30T20:19:26.678Z,100473.47
2023-04-30T20:21:54.503Z,100467.44
2023-04-30T20:24:22.681Z,100469.34
2023-04-30T20:26:51.640Z,100471.28
2023-04-30T20:29:20.553Z,100469.72
